sensor_id;sensor_type;location;lat;lon;timestamp;temperature;humidity
11848;DHT22;5983;49.966;8.052;2023-03-14T00:01:21;10.70;99.90
11848;DHT22;5983;49.966;8.052;2023-03-14T00:03:48;10.70;99.90
11848;DHT22;5983;49.966;8.052;2023-03-14T00:06:16;10.70;99.90
11848;DHT22;5983;49.966;8.052;2023-03-14T00:08:44;10.70;99.90
11848;DHT22;5983;49.966;8.052;2023-03-14T00:11:13;10.70;99.90
11848;DHT22;5983;49.966;8.052;2023-03-14T00:13:42;10.80;99.90
11848;DHT22;5983;49.966;8.052;2023-03-14T00:16:11;10.80;99.90
11848;DHT22;5983;49.966;8.052;2023-03-14T00:18:39;10.80;99.90
11848;DHT22;5983;49.966;8.052;2023-03-14T00:21:08;10.90;99.90
11848;DHT22;5983;49.966;8.052;2023-03-14T00:23:37;10.90;99.90
11848;DHT22;5983;49.966;8.052;2023-03-14T00:26:07;10.90;99.90
11848;DHT22;5983;49.966;8.052;2023-03-14T00:28:36;11.00;99.90
11848;DHT22;5983;49.966;8.052;2023-03-14T00:31:05;10.90;99.90
11848;DHT22;5983;49.966;8.052;2023-03-14T00:33:34;10.90;99.90
11848;DHT22;5983;49.966;8.052;2023-03-14T00:36:03;10.90;99.90
11848;DHT22;5983;49.966;8.052;2023-03-14T00:38:34;10.90;99.90
11848;DHT22;5983;49.966;8.052;2023-03-14T00:41:03;11.00;99.90
11848;DHT22;5983;49.966;8.052;2023-03-14T00:43:30;10.90;99.90
11848;DHT22;5983;49.966;8.052;2023-03-14T00:45:57;10.90;99.90
11848;DHT22;5983;49.966;8.052;2023-03-14T00:48:26;10.90;99.90
11848;DHT22;5983;49.966;8.052;2023-03-14T00:50:53;10.90;99.90
11848;DHT22;5983;49.966;8.052;2023-03-14T00:53:20;10.90;99.90
11848;DHT22;5983;49.966;8.052;2023-03-14T00:55:48;10.90;99.90
11848;DHT22;5983;49.966;8.052;2023-03-14T00:58:17;10.90;99.90
11848;DHT22;5983;49.966;8.052;2023-03-14T01:00:45;10.90;99.90
11848;DHT22;5983;49.966;8.052;2023-03-14T01:03:13;10.90;99.90
11848;DHT22;5983;49.966;8.052;2023-03-14T01:05:42;10.90;99.90
11848;DHT22;5983;49.966;8.052;2023-03-14T01:08:09;10.90;99.90
11848;DHT22;5983;49.966;8.052;2023-03-14T01:10:38;10.90;99.90
11848;DHT22;5983;49.966;8.052;2023-03-14T01:13:06;10.90;99.90
11848;DHT22;5983;49.966;8.052;2023-03-14T01:15:33;10.90;99.90
11848;DHT22;5983;49.966;8.052;2023-03-14T01:18:00;10.90;99.90
11848;DHT22;5983;49.966;8.052;2023-03-14T01:20:27;10.90;99.90
11848;DHT22;5983;49.966;8.052;2023-03-14T01:22:55;10.90;99.90
11848;DHT22;5983;49.966;8.052;2023-03-14T01:25:22;11.00;99.90
11848;DHT22;5983;49.966;8.052;2023-03-14T01:27:49;11.00;99.90
11848;DHT22;5983;49.966;8.052;2023-03-14T01:30:16;11.00;99.90
11848;DHT22;5983;49.966;8.052;2023-03-14T01:32:43;11.00;99.90
11848;DHT22;5983;49.966;8.052;2023-03-14T01:35:10;10.90;99.90
11848;DHT22;5983;49.966;8.052;2023-03-14T01:37:36;10.90;99.90
11848;DHT22;5983;49.966;8.052;2023-03-14T01:40:06;10.90;99.90
11848;DHT22;5983;49.966;8.052;2023-03-14T01:42:33;10.80;99.90
11848;DHT22;5983;49.966;8.052;2023-03-14T01:45:01;10.80;99.90
11848;DHT22;5983;49.966;8.052;2023-03-14T01:47:28;10.80;99.90
11848;DHT22;5983;49.966;8.052;2023-03-14T01:49:59;10.80;99.90
11848;DHT22;5983;49.966;8.052;2023-03-14T01:52:32;10.80;99.90
11848;DHT22;5983;49.966;8.052;2023-03-14T01:55:06;10.80;99.90
11848;DHT22;5983;49.966;8.052;2023-03-14T01:57:37;10.80;99.90
11848;DHT22;5983;49.966;8.052;2023-03-14T02:00:11;10.80;99.90
11848;DHT22;5983;49.966;8.052;2023-03-14T02:02:41;10.70;99.90
11848;DHT22;5983;49.966;8.052;2023-03-14T02:05:12;10.70;99.90
11848;DHT22;5983;49.966;8.052;2023-03-14T02:07:47;10.70;99.90
11848;DHT22;5983;49.966;8.052;2023-03-14T02:10:20;10.70;99.90
11848;DHT22;5983;49.966;8.052;2023-03-14T02:12:49;10.70;99.90
11848;DHT22;5983;49.966;8.052;2023-03-14T02:15:18;10.70;99.90
11848;DHT22;5983;49.966;8.052;2023-03-14T02:17:45;10.70;99.90
11848;DHT22;5983;49.966;8.052;2023-03-14T02:20:23;10.70;99.90
11848;DHT22;5983;49.966;8.052;2023-03-14T02:22:56;10.80;99.90
11848;DHT22;5983;49.966;8.052;2023-03-14T02:25:31;10.80;99.90
11848;DHT22;5983;49.966;8.052;2023-03-14T02:28:06;10.70;99.90
11848;DHT22;5983;49.966;8.052;2023-03-14T02:30:33;10.70;99.90
11848;DHT22;5983;49.966;8.052;2023-03-14T02:33:03;10.70;99.90
11848;DHT22;5983;49.966;8.052;2023-03-14T02:35:35;10.70;99.90
11848;DHT22;5983;49.966;8.052;2023-03-14T02:38:12;10.70;99.90
11848;DHT22;5983;49.966;8.052;2023-03-14T02:40:43;10.70;99.90
11848;DHT22;5983;49.966;8.052;2023-03-14T02:43:13;10.70;99.90
11848;DHT22;5983;49.966;8.052;2023-03-14T02:45:42;10.70;99.90
11848;DHT22;5983;49.966;8.052;2023-03-14T02:48:14;10.70;99.90
11848;DHT22;5983;49.966;8.052;2023-03-14T02:50:45;10.80;99.90
11848;DHT22;5983;49.966;8.052;2023-03-14T02:53:18;10.80;99.90
11848;DHT22;5983;49.966;8.052;2023-03-14T02:55:48;10.80;99.90
11848;DHT22;5983;49.966;8.052;2023-03-14T02:58:18;10.80;99.90
11848;DHT22;5983;49.966;8.052;2023-03-14T03:00:45;10.80;99.90
11848;DHT22;5983;49.966;8.052;2023-03-14T03:03:13;10.70;99.90
11848;DHT22;5983;49.966;8.052;2023-03-14T03:05:40;10.70;99.90
11848;DHT22;5983;49.966;8.052;2023-03-14T03:08:08;10.60;99.90
11848;DHT22;5983;49.966;8.052;2023-03-14T03:10:35;10.60;99.90
11848;DHT22;5983;49.966;8.052;2023-03-14T03:13:02;10.50;99.90
11848;DHT22;5983;49.966;8.052;2023-03-14T03:15:31;10.50;99.90
11848;DHT22;5983;49.966;8.052;2023-03-14T03:17:58;10.50;99.90
11848;DHT22;5983;49.966;8.052;2023-03-14T03:20:25;10.50;99.90
11848;DHT22;5983;49.966;8.052;2023-03-14T03:22:52;10.40;99.90
11848;DHT22;5983;49.966;8.052;2023-03-14T03:25:18;10.50;99.90
11848;DHT22;5983;49.966;8.052;2023-03-14T03:27:45;10.50;99.90
11848;DHT22;5983;49.966;8.052;2023-03-14T03:30:13;10.50;99.90
11848;DHT22;5983;49.966;8.052;2023-03-14T03:32:42;10.50;99.90
11848;DHT22;5983;49.966;8.052;2023-03-14T03:35:09;10.50;99.90
11848;DHT22;5983;49.966;8.052;2023-03-14T03:37:37;10.50;99.90
11848;DHT22;5983;49.966;8.052;2023-03-14T03:40:05;10.50;99.90
11848;DHT22;5983;49.966;8.052;2023-03-14T03:42:32;10.50;99.90
11848;DHT22;5983;49.966;8.052;2023-03-14T03:45:00;10.40;99.90
11848;DHT22;5983;49.966;8.052;2023-03-14T03:47:30;10.40;99.90
11848;DHT22;5983;49.966;8.052;2023-03-14T03:49:58;10.40;99.90
11848;DHT22;5983;49.966;8.052;2023-03-14T03:52:25;10.40;99.90
11848;DHT22;5983;49.966;8.052;2023-03-14T03:54:53;10.40;99.90
11848;DHT22;5983;49.966;8.052;2023-03-14T03:57:19;10.40;99.90
11848;DHT22;5983;49.966;8.052;2023-03-14T03:59:46;10.40;99.90
11848;DHT22;5983;49.966;8.052;2023-03-14T04:02:13;10.40;99.90
11848;DHT22;5983;49.966;8.052;2023-03-14T04:04:40;10.40;99.90
11848;DHT22;5983;49.966;8.052;2023-03-14T04:07:08;10.40;99.90
11848;DHT22;5983;49.966;8.052;2023-03-14T04:09:37;10.40;99.90
11848;DHT22;5983;49.966;8.052;2023-03-14T04:12:04;10.40;99.90
11848;DHT22;5983;49.966;8.052;2023-03-14T04:14:31;10.40;99.90
11848;DHT22;5983;49.966;8.052;2023-03-14T04:16:58;10.50;99.90
11848;DHT22;5983;49.966;8.052;2023-03-14T04:19:25;10.50;99.90
11848;DHT22;5983;49.966;8.052;2023-03-14T04:21:52;10.60;99.90
11848;DHT22;5983;49.966;8.052;2023-03-14T04:24:20;10.60;99.90
11848;DHT22;5983;49.966;8.052;2023-03-14T04:26:47;10.60;99.90
11848;DHT22;5983;49.966;8.052;2023-03-14T04:29:14;10.50;99.90
11848;DHT22;5983;49.966;8.052;2023-03-14T04:31:41;10.50;99.90
11848;DHT22;5983;49.966;8.052;2023-03-14T04:34:08;10.50;99.90
11848;DHT22;5983;49.966;8.052;2023-03-14T04:36:35;10.50;99.90
11848;DHT22;5983;49.966;8.052;2023-03-14T04:39:02;10.50;99.90
11848;DHT22;5983;49.966;8.052;2023-03-14T04:41:30;10.50;99.90
11848;DHT22;5983;49.966;8.052;2023-03-14T04:43:58;10.50;99.90
11848;DHT22;5983;49.966;8.052;2023-03-14T04:46:24;10.60;99.90
11848;DHT22;5983;49.966;8.052;2023-03-14T04:48:51;10.60;99.90
11848;DHT22;5983;49.966;8.052;2023-03-14T04:51:18;10.50;99.90
11848;DHT22;5983;49.966;8.052;2023-03-14T04:53:48;10.50;99.90
11848;DHT22;5983;49.966;8.052;2023-03-14T04:56:15;10.50;99.90
11848;DHT22;5983;49.966;8.052;2023-03-14T04:58:43;10.50;99.90
11848;DHT22;5983;49.966;8.052;2023-03-14T05:01:10;10.50;99.90
11848;DHT22;5983;49.966;8.052;2023-03-14T05:03:37;10.50;99.90
11848;DHT22;5983;49.966;8.052;2023-03-14T05:06:04;10.60;99.90
11848;DHT22;5983;49.966;8.052;2023-03-14T05:08:31;10.50;99.90
11848;DHT22;5983;49.966;8.052;2023-03-14T05:10:58;10.50;99.90
11848;DHT22;5983;49.966;8.052;2023-03-14T05:13:25;10.50;99.90
11848;DHT22;5983;49.966;8.052;2023-03-14T05:15:53;10.50;99.90
11848;DHT22;5983;49.966;8.052;2023-03-14T05:18:29;10.50;99.90
11848;DHT22;5983;49.966;8.052;2023-03-14T05:20:55;10.50;99.90
11848;DHT22;5983;49.966;8.052;2023-03-14T05:23:22;10.50;99.90
11848;DHT22;5983;49.966;8.052;2023-03-14T05:25:49;10.50;99.90
11848;DHT22;5983;49.966;8.052;2023-03-14T05:28:16;10.50;99.90
11848;DHT22;5983;49.966;8.052;2023-03-14T05:30:43;10.50;99.90
11848;DHT22;5983;49.966;8.052;2023-03-14T05:33:11;10.50;99.90
11848;DHT22;5983;49.966;8.052;2023-03-14T05:35:38;10.50;99.90
11848;DHT22;5983;49.966;8.052;2023-03-14T05:38:05;10.50;99.90
11848;DHT22;5983;49.966;8.052;2023-03-14T05:40:31;10.50;99.90
11848;DHT22;5983;49.966;8.052;2023-03-14T05:42:58;10.50;99.90
11848;DHT22;5983;49.966;8.052;2023-03-14T05:45:25;10.50;99.90
11848;DHT22;5983;49.966;8.052;2023-03-14T05:47:52;10.50;99.90
11848;DHT22;5983;49.966;8.052;2023-03-14T05:50:20;10.50;99.90
11848;DHT22;5983;49.966;8.052;2023-03-14T05:52:47;10.40;99.90
11848;DHT22;5983;49.966;8.052;2023-03-14T05:55:14;10.40;99.90
11848;DHT22;5983;49.966;8.052;2023-03-14T05:57:41;10.40;99.90
11848;DHT22;5983;49.966;8.052;2023-03-14T06:00:09;10.40;99.90
11848;DHT22;5983;49.966;8.052;2023-03-14T06:02:36;10.40;99.90
11848;DHT22;5983;49.966;8.052;2023-03-14T06:05:04;10.40;99.90
11848;DHT22;5983;49.966;8.052;2023-03-14T06:07:33;10.30;99.90
11848;DHT22;5983;49.966;8.052;2023-03-14T06:10:00;10.30;99.90
11848;DHT22;5983;49.966;8.052;2023-03-14T06:12:27;10.40;99.90
11848;DHT22;5983;49.966;8.052;2023-03-14T06:14:54;10.30;99.90
11848;DHT22;5983;49.966;8.052;2023-03-14T06:17:21;10.40;99.90
11848;DHT22;5983;49.966;8.052;2023-03-14T06:19:48;10.30;99.90
11848;DHT22;5983;49.966;8.052;2023-03-14T06:22:15;10.40;99.90
11848;DHT22;5983;49.966;8.052;2023-03-14T06:24:43;10.40;99.90
11848;DHT22;5983;49.966;8.052;2023-03-14T06:27:10;10.40;99.90
11848;DHT22;5983;49.966;8.052;2023-03-14T06:29:37;10.50;99.90
11848;DHT22;5983;49.966;8.052;2023-03-14T06:32:04;10.50;99.90
11848;DHT22;5983;49.966;8.052;2023-03-14T06:34:31;10.50;99.90
11848;DHT22;5983;49.966;8.052;2023-03-14T06:36:58;10.50;99.90
11848;DHT22;5983;49.966;8.052;2023-03-14T06:39:25;10.60;99.90
11848;DHT22;5983;49.966;8.052;2023-03-14T06:41:53;10.60;99.90
11848;DHT22;5983;49.966;8.052;2023-03-14T06:44:20;10.60;99.90
11848;DHT22;5983;49.966;8.052;2023-03-14T06:46:47;10.60;99.90
11848;DHT22;5983;49.966;8.052;2023-03-14T06:49:14;10.70;99.90
11848;DHT22;5983;49.966;8.052;2023-03-14T06:51:40;10.70;99.90
11848;DHT22;5983;49.966;8.052;2023-03-14T06:54:07;10.90;99.90
11848;DHT22;5983;49.966;8.052;2023-03-14T06:56:34;10.90;99.90
11848;DHT22;5983;49.966;8.052;2023-03-14T06:59:02;11.00;99.90
11848;DHT22;5983;49.966;8.052;2023-03-14T07:01:30;11.00;99.90
11848;DHT22;5983;49.966;8.052;2023-03-14T07:04:00;11.00;99.90
11848;DHT22;5983;49.966;8.052;2023-03-14T07:06:27;11.10;99.90
11848;DHT22;5983;49.966;8.052;2023-03-14T07:08:55;11.10;99.90
11848;DHT22;5983;49.966;8.052;2023-03-14T07:11:22;11.10;99.90
11848;DHT22;5983;49.966;8.052;2023-03-14T07:13:49;11.10;99.90
11848;DHT22;5983;49.966;8.052;2023-03-14T07:16:17;11.10;99.90
11848;DHT22;5983;49.966;8.052;2023-03-14T07:18:45;11.10;99.90
11848;DHT22;5983;49.966;8.052;2023-03-14T07:21:12;11.20;99.90
11848;DHT22;5983;49.966;8.052;2023-03-14T07:23:39;11.10;99.90
11848;DHT22;5983;49.966;8.052;2023-03-14T07:26:06;11.20;99.90
11848;DHT22;5983;49.966;8.052;2023-03-14T07:28:33;11.10;99.90
11848;DHT22;5983;49.966;8.052;2023-03-14T07:31:00;11.10;99.90
11848;DHT22;5983;49.966;8.052;2023-03-14T07:33:28;11.00;99.90
11848;DHT22;5983;49.966;8.052;2023-03-14T07:35:55;11.10;99.90
11848;DHT22;5983;49.966;8.052;2023-03-14T07:38:22;11.50;99.90
11848;DHT22;5983;49.966;8.052;2023-03-14T07:40:52;12.30;99.90
11848;DHT22;5983;49.966;8.052;2023-03-14T07:43:24;13.30;99.90
11848;DHT22;5983;49.966;8.052;2023-03-14T07:45:51;14.20;99.90
11848;DHT22;5983;49.966;8.052;2023-03-14T07:48:18;14.50;99.90
11848;DHT22;5983;49.966;8.052;2023-03-14T07:50:49;15.00;99.90
11848;DHT22;5983;49.966;8.052;2023-03-14T07:53:16;15.20;99.90
11848;DHT22;5983;49.966;8.052;2023-03-14T07:55:44;15.60;99.90
11848;DHT22;5983;49.966;8.052;2023-03-14T07:58:11;16.40;99.90
11848;DHT22;5983;49.966;8.052;2023-03-14T08:00:38;17.60;99.90
11848;DHT22;5983;49.966;8.052;2023-03-14T08:03:05;18.50;99.90
11848;DHT22;5983;49.966;8.052;2023-03-14T08:05:34;18.90;99.90
11848;DHT22;5983;49.966;8.052;2023-03-14T08:08:04;18.60;99.90
11848;DHT22;5983;49.966;8.052;2023-03-14T08:10:31;17.70;99.90
11848;DHT22;5983;49.966;8.052;2023-03-14T08:12:59;16.70;99.90
11848;DHT22;5983;49.966;8.052;2023-03-14T08:15:29;15.90;99.90
11848;DHT22;5983;49.966;8.052;2023-03-14T08:17:57;15.70;99.90
11848;DHT22;5983;49.966;8.052;2023-03-14T08:20:26;15.40;99.90
11848;DHT22;5983;49.966;8.052;2023-03-14T08:22:55;15.30;99.90
11848;DHT22;5983;49.966;8.052;2023-03-14T08:25:25;15.60;99.90
11848;DHT22;5983;49.966;8.052;2023-03-14T08:27:53;15.70;99.90
11848;DHT22;5983;49.966;8.052;2023-03-14T08:30:21;15.80;99.90
11848;DHT22;5983;49.966;8.052;2023-03-14T08:32:48;15.60;99.90
11848;DHT22;5983;49.966;8.052;2023-03-14T08:35:15;15.70;99.90
11848;DHT22;5983;49.966;8.052;2023-03-14T08:37:42;15.60;99.90
11848;DHT22;5983;49.966;8.052;2023-03-14T08:40:10;15.90;99.90
11848;DHT22;5983;49.966;8.052;2023-03-14T08:42:40;16.30;99.90
11848;DHT22;5983;49.966;8.052;2023-03-14T08:45:08;16.10;99.90
11848;DHT22;5983;49.966;8.052;2023-03-14T08:47:37;15.70;99.90
11848;DHT22;5983;49.966;8.052;2023-03-14T08:50:05;15.10;99.90
11848;DHT22;5983;49.966;8.052;2023-03-14T08:52:33;14.90;99.90
11848;DHT22;5983;49.966;8.052;2023-03-14T08:55:00;14.80;99.90
11848;DHT22;5983;49.966;8.052;2023-03-14T08:57:27;14.80;99.90
11848;DHT22;5983;49.966;8.052;2023-03-14T08:59:55;15.10;99.90
11848;DHT22;5983;49.966;8.052;2023-03-14T09:02:23;15.40;99.90
11848;DHT22;5983;49.966;8.052;2023-03-14T09:04:52;14.80;99.90
11848;DHT22;5983;49.966;8.052;2023-03-14T09:07:19;14.40;99.90
11848;DHT22;5983;49.966;8.052;2023-03-14T09:09:46;14.00;99.90
11848;DHT22;5983;49.966;8.052;2023-03-14T09:12:13;13.80;99.90
11848;DHT22;5983;49.966;8.052;2023-03-14T09:14:40;13.70;99.90
11848;DHT22;5983;49.966;8.052;2023-03-14T09:17:08;13.60;99.90
11848;DHT22;5983;49.966;8.052;2023-03-14T09:19:35;13.60;99.90
11848;DHT22;5983;49.966;8.052;2023-03-14T09:22:03;13.40;99.90
11848;DHT22;5983;49.966;8.052;2023-03-14T09:24:30;13.20;99.90
11848;DHT22;5983;49.966;8.052;2023-03-14T09:26:58;13.10;99.90
11848;DHT22;5983;49.966;8.052;2023-03-14T09:29:25;13.20;99.90
11848;DHT22;5983;49.966;8.052;2023-03-14T09:31:52;13.30;99.90
11848;DHT22;5983;49.966;8.052;2023-03-14T09:34:20;13.30;99.90
11848;DHT22;5983;49.966;8.052;2023-03-14T09:36:47;13.40;99.90
11848;DHT22;5983;49.966;8.052;2023-03-14T09:39:14;13.40;99.90
11848;DHT22;5983;49.966;8.052;2023-03-14T09:41:44;13.40;99.90
11848;DHT22;5983;49.966;8.052;2023-03-14T09:44:15;13.40;99.90
11848;DHT22;5983;49.966;8.052;2023-03-14T09:46:50;13.40;99.90
11848;DHT22;5983;49.966;8.052;2023-03-14T09:49:23;13.40;99.90
11848;DHT22;5983;49.966;8.052;2023-03-14T09:51:55;13.60;99.90
11848;DHT22;5983;49.966;8.052;2023-03-14T09:54:35;13.80;99.90
11848;DHT22;5983;49.966;8.052;2023-03-14T09:57:06;14.10;99.90
11848;DHT22;5983;49.966;8.052;2023-03-14T09:59:39;14.30;99.90
11848;DHT22;5983;49.966;8.052;2023-03-14T10:02:18;14.50;99.90
11848;DHT22;5983;49.966;8.052;2023-03-14T10:04:50;14.50;99.90
11848;DHT22;5983;49.966;8.052;2023-03-14T10:07:23;14.60;99.90
11848;DHT22;5983;49.966;8.052;2023-03-14T10:09:54;14.50;99.90
11848;DHT22;5983;49.966;8.052;2023-03-14T10:12:30;14.30;99.90
11848;DHT22;5983;49.966;8.052;2023-03-14T10:15:02;14.00;99.90
11848;DHT22;5983;49.966;8.052;2023-03-14T10:17:38;13.70;99.90
11848;DHT22;5983;49.966;8.052;2023-03-14T10:20:26;13.50;99.90
11848;DHT22;5983;49.966;8.052;2023-03-14T10:22:58;13.40;99.90
11848;DHT22;5983;49.966;8.052;2023-03-14T10:25:28;13.40;99.90
11848;DHT22;5983;49.966;8.052;2023-03-14T10:27:57;13.20;99.90
11848;DHT22;5983;49.966;8.052;2023-03-14T10:30:30;13.10;99.90
11848;DHT22;5983;49.966;8.052;2023-03-14T10:33:10;13.00;99.90
11848;DHT22;5983;49.966;8.052;2023-03-14T10:35:39;13.00;99.90
11848;DHT22;5983;49.966;8.052;2023-03-14T10:38:13;12.90;99.90
11848;DHT22;5983;49.966;8.052;2023-03-14T10:40:46;12.90;99.90
11848;DHT22;5983;49.966;8.052;2023-03-14T10:43:17;12.90;99.90
11848;DHT22;5983;49.966;8.052;2023-03-14T10:45:51;12.90;99.90
11848;DHT22;5983;49.966;8.052;2023-03-14T10:48:24;12.90;99.90
11848;DHT22;5983;49.966;8.052;2023-03-14T10:51:04;12.90;99.90
11848;DHT22;5983;49.966;8.052;2023-03-14T10:53:34;12.80;99.90
11848;DHT22;5983;49.966;8.052;2023-03-14T10:56:07;12.70;99.90
11848;DHT22;5983;49.966;8.052;2023-03-14T10:58:41;12.80;99.90
11848;DHT22;5983;49.966;8.052;2023-03-14T11:01:21;12.90;99.90
11848;DHT22;5983;49.966;8.052;2023-03-14T11:03:59;13.00;99.90
11848;DHT22;5983;49.966;8.052;2023-03-14T11:06:37;13.10;99.90
11848;DHT22;5983;49.966;8.052;2023-03-14T11:09:15;13.20;99.90
11848;DHT22;5983;49.966;8.052;2023-03-14T11:11:47;13.30;99.90
11848;DHT22;5983;49.966;8.052;2023-03-14T11:14:20;13.30;99.90
11848;DHT22;5983;49.966;8.052;2023-03-14T11:17:00;13.40;99.90
11848;DHT22;5983;49.966;8.052;2023-03-14T11:19:42;13.60;99.90
11848;DHT22;5983;49.966;8.052;2023-03-14T11:22:21;13.60;99.90
11848;DHT22;5983;49.966;8.052;2023-03-14T11:27:58;13.60;99.90
11848;DHT22;5983;49.966;8.052;2023-03-14T11:30:39;13.40;99.90
11848;DHT22;5983;49.966;8.052;2023-03-14T11:33:15;13.30;99.90
11848;DHT22;5983;49.966;8.052;2023-03-14T11:35:47;13.30;99.90
11848;DHT22;5983;49.966;8.052;2023-03-14T11:38:29;13.50;99.90
11848;DHT22;5983;49.966;8.052;2023-03-14T11:41:00;14.00;99.90
11848;DHT22;5983;49.966;8.052;2023-03-14T11:43:29;14.30;99.90
11848;DHT22;5983;49.966;8.052;2023-03-14T11:46:04;14.50;99.90
11848;DHT22;5983;49.966;8.052;2023-03-14T11:48:38;14.40;99.90
11848;DHT22;5983;49.966;8.052;2023-03-14T11:51:16;14.40;99.90
11848;DHT22;5983;49.966;8.052;2023-03-14T11:53:57;14.60;99.90
11848;DHT22;5983;49.966;8.052;2023-03-14T11:56:33;16.00;99.90
11848;DHT22;5983;49.966;8.052;2023-03-14T11:59:07;17.50;99.90
11848;DHT22;5983;49.966;8.052;2023-03-14T12:01:52;18.90;99.90
11848;DHT22;5983;49.966;8.052;2023-03-14T12:04:38;20.00;99.90
11848;DHT22;5983;49.966;8.052;2023-03-14T12:07:18;20.60;99.90
11848;DHT22;5983;49.966;8.052;2023-03-14T12:09:49;20.90;97.60
11848;DHT22;5983;49.966;8.052;2023-03-14T12:12:20;20.30;97.30
11848;DHT22;5983;49.966;8.052;2023-03-14T12:14:53;19.70;97.20
11848;DHT22;5983;49.966;8.052;2023-03-14T12:17:24;19.10;97.90
11848;DHT22;5983;49.966;8.052;2023-03-14T12:20:01;18.50;98.40
11848;DHT22;5983;49.966;8.052;2023-03-14T12:22:34;18.10;99.10
11848;DHT22;5983;49.966;8.052;2023-03-14T12:25:06;17.70;99.90
11848;DHT22;5983;49.966;8.052;2023-03-14T12:27:45;17.40;99.90
11848;DHT22;5983;49.966;8.052;2023-03-14T12:30:23;17.20;99.90
11848;DHT22;5983;49.966;8.052;2023-03-14T12:33:26;16.60;99.90
11848;DHT22;5983;49.966;8.052;2023-03-14T12:35:58;15.90;99.90
11848;DHT22;5983;49.966;8.052;2023-03-14T12:38:43;15.30;99.90
11848;DHT22;5983;49.966;8.052;2023-03-14T12:41:21;14.70;99.90
11848;DHT22;5983;49.966;8.052;2023-03-14T12:43:53;14.20;99.90
11848;DHT22;5983;49.966;8.052;2023-03-14T12:46:22;13.90;99.90
11848;DHT22;5983;49.966;8.052;2023-03-14T12:48:54;13.60;99.90
11848;DHT22;5983;49.966;8.052;2023-03-14T12:51:29;13.30;99.90
11848;DHT22;5983;49.966;8.052;2023-03-14T12:54:21;13.10;99.90
11848;DHT22;5983;49.966;8.052;2023-03-14T12:57:23;12.90;99.90
11848;DHT22;5983;49.966;8.052;2023-03-14T12:59:56;12.80;99.90
11848;DHT22;5983;49.966;8.052;2023-03-14T13:02:26;12.70;99.90
11848;DHT22;5983;49.966;8.052;2023-03-14T13:05:02;12.60;99.90
11848;DHT22;5983;49.966;8.052;2023-03-14T13:07:38;12.60;99.90
11848;DHT22;5983;49.966;8.052;2023-03-14T13:10:39;12.90;99.90
11848;DHT22;5983;49.966;8.052;2023-03-14T13:13:21;13.50;99.90
11848;DHT22;5983;49.966;8.052;2023-03-14T13:15:54;13.80;99.90
11848;DHT22;5983;49.966;8.052;2023-03-14T13:18:28;13.70;99.90
11848;DHT22;5983;49.966;8.052;2023-03-14T13:21:02;13.60;99.90
11848;DHT22;5983;49.966;8.052;2023-03-14T13:23:34;13.30;99.90
11848;DHT22;5983;49.966;8.052;2023-03-14T13:26:09;13.10;99.90
11848;DHT22;5983;49.966;8.052;2023-03-14T13:28:41;12.90;99.90
11848;DHT22;5983;49.966;8.052;2023-03-14T13:31:23;12.80;99.90
11848;DHT22;5983;49.966;8.052;2023-03-14T13:33:58;12.80;99.90
11848;DHT22;5983;49.966;8.052;2023-03-14T13:36:26;12.80;99.90
11848;DHT22;5983;49.966;8.052;2023-03-14T13:38:57;12.80;99.90
11848;DHT22;5983;49.966;8.052;2023-03-14T13:41:27;12.90;99.90
11848;DHT22;5983;49.966;8.052;2023-03-14T13:44:02;13.10;99.90
11848;DHT22;5983;49.966;8.052;2023-03-14T13:46:34;13.30;99.90
11848;DHT22;5983;49.966;8.052;2023-03-14T13:49:03;13.30;99.90
11848;DHT22;5983;49.966;8.052;2023-03-14T13:51:32;13.50;99.90
11848;DHT22;5983;49.966;8.052;2023-03-14T13:54:00;13.60;99.90
11848;DHT22;5983;49.966;8.052;2023-03-14T13:56:30;13.50;99.90
11848;DHT22;5983;49.966;8.052;2023-03-14T13:59:00;13.50;99.90
11848;DHT22;5983;49.966;8.052;2023-03-14T14:01:29;13.40;99.90
11848;DHT22;5983;49.966;8.052;2023-03-14T14:04:02;13.40;99.90
11848;DHT22;5983;49.966;8.052;2023-03-14T14:06:35;13.40;99.90
11848;DHT22;5983;49.966;8.052;2023-03-14T14:09:10;13.60;99.90
11848;DHT22;5983;49.966;8.052;2023-03-14T14:11:43;13.90;99.90
11848;DHT22;5983;49.966;8.052;2023-03-14T14:14:20;14.00;99.90
11848;DHT22;5983;49.966;8.052;2023-03-14T14:16:52;14.10;99.90
11848;DHT22;5983;49.966;8.052;2023-03-14T14:19:20;14.20;99.90
11848;DHT22;5983;49.966;8.052;2023-03-14T14:21:50;14.20;99.90
11848;DHT22;5983;49.966;8.052;2023-03-14T14:24:17;14.10;99.90
11848;DHT22;5983;49.966;8.052;2023-03-14T14:26:47;13.90;99.90
11848;DHT22;5983;49.966;8.052;2023-03-14T14:29:26;13.70;99.90
11848;DHT22;5983;49.966;8.052;2023-03-14T14:32:11;13.40;99.90
11848;DHT22;5983;49.966;8.052;2023-03-14T14:34:40;13.20;99.90
11848;DHT22;5983;49.966;8.052;2023-03-14T14:37:19;13.00;99.90
11848;DHT22;5983;49.966;8.052;2023-03-14T14:39:47;12.90;99.90
11848;DHT22;5983;49.966;8.052;2023-03-14T14:42:18;12.90;99.90
11848;DHT22;5983;49.966;8.052;2023-03-14T14:44:49;13.00;99.90
11848;DHT22;5983;49.966;8.052;2023-03-14T14:47:19;13.00;99.90
11848;DHT22;5983;49.966;8.052;2023-03-14T14:49:48;12.90;99.90
11848;DHT22;5983;49.966;8.052;2023-03-14T14:52:18;12.80;99.90
11848;DHT22;5983;49.966;8.052;2023-03-14T14:54:47;12.70;99.90
11848;DHT22;5983;49.966;8.052;2023-03-14T14:57:21;12.60;99.90
11848;DHT22;5983;49.966;8.052;2023-03-14T14:59:54;12.50;99.90
11848;DHT22;5983;49.966;8.052;2023-03-14T15:02:30;12.40;99.90
11848;DHT22;5983;49.966;8.052;2023-03-14T15:05:03;12.20;99.90
11848;DHT22;5983;49.966;8.052;2023-03-14T15:07:31;12.10;99.90
11848;DHT22;5983;49.966;8.052;2023-03-14T15:09:58;11.90;99.90
11848;DHT22;5983;49.966;8.052;2023-03-14T15:12:25;11.80;99.90
11848;DHT22;5983;49.966;8.052;2023-03-14T15:14:53;11.70;99.90
11848;DHT22;5983;49.966;8.052;2023-03-14T15:17:22;11.70;99.90
11848;DHT22;5983;49.966;8.052;2023-03-14T15:19:49;11.50;99.90
11848;DHT22;5983;49.966;8.052;2023-03-14T15:22:16;11.40;99.90
11848;DHT22;5983;49.966;8.052;2023-03-14T15:24:43;11.30;99.90
11848;DHT22;5983;49.966;8.052;2023-03-14T15:27:13;11.30;99.90
11848;DHT22;5983;49.966;8.052;2023-03-14T15:29:41;11.30;99.90
11848;DHT22;5983;49.966;8.052;2023-03-14T15:32:12;11.30;99.90
11848;DHT22;5983;49.966;8.052;2023-03-14T15:34:40;11.30;99.90
11848;DHT22;5983;49.966;8.052;2023-03-14T15:37:10;11.50;99.90
11848;DHT22;5983;49.966;8.052;2023-03-14T15:39:38;11.50;99.90
11848;DHT22;5983;49.966;8.052;2023-03-14T15:42:06;11.50;99.90
11848;DHT22;5983;49.966;8.052;2023-03-14T15:44:33;11.50;99.90
11848;DHT22;5983;49.966;8.052;2023-03-14T15:47:00;11.40;99.90
11848;DHT22;5983;49.966;8.052;2023-03-14T15:49:28;11.40;99.90
11848;DHT22;5983;49.966;8.052;2023-03-14T15:51:55;11.30;99.90
11848;DHT22;5983;49.966;8.052;2023-03-14T15:54:22;11.20;99.90
11848;DHT22;5983;49.966;8.052;2023-03-14T15:56:49;11.10;99.90
11848;DHT22;5983;49.966;8.052;2023-03-14T15:59:17;11.00;99.90
11848;DHT22;5983;49.966;8.052;2023-03-14T16:01:44;10.90;99.90
11848;DHT22;5983;49.966;8.052;2023-03-14T16:04:13;10.80;99.90
11848;DHT22;5983;49.966;8.052;2023-03-14T16:06:41;10.70;99.90